createdAt,value
2022-09-13T00:00:00.263Z,15.11
2022-09-13T00:03:08.867Z,15.12
2022-09-13T00:06:16.447Z,15.26
2022-09-13T00:09:24.826Z,15.28
2022-09-13T00:13:11.394Z,15.31
2022-09-13T00:16:19.873Z,15.30
2022-09-13T00:19:28.263Z,15.30
2022-09-13T00:22:36.258Z,15.28
2022-09-13T00:25:44.256Z,15.30
2022-09-13T00:28:52.626Z,15.31
2022-09-13T00:32:00.639Z,15.28
2022-09-13T00:35:08.692Z,15.27
2022-09-13T00:38:16.831Z,15.26
2022-09-13T00:41:24.921Z,15.24
2022-09-13T00:44:33.061Z,15.23
2022-09-13T00:47:40.844Z,15.19
2022-09-13T00:50:49.173Z,15.15
2022-09-13T00:53:57.215Z,15.09
2022-09-13T00:57:04.863Z,15.03
2022-09-13T01:00:13.145Z,15.02
2022-09-13T01:03:21.278Z,14.99
2022-09-13T01:06:29.463Z,14.99
2022-09-13T01:09:37.856Z,14.98
2022-09-13T01:12:45.600Z,14.98
2022-09-13T01:15:54.269Z,14.95
2022-09-13T01:19:02.702Z,14.95
2022-09-13T01:22:10.413Z,15.01
2022-09-13T01:25:19.157Z,15.06
2022-09-13T01:28:27.119Z,15.09
2022-09-13T01:31:35.258Z,15.13
2022-09-13T01:34:43.696Z,15.13
2022-09-13T01:37:51.688Z,15.13
2022-09-13T01:41:04.076Z,15.15
2022-09-13T01:44:01.789Z,15.13
2022-09-13T01:47:10.064Z,15.11
2022-09-13T01:50:17.698Z,15.08
2022-09-13T01:53:26.409Z,15.05
2022-09-13T01:56:34.803Z,15.02
2022-09-13T01:59:42.442Z,14.99
2022-09-13T02:02:50.726Z,14.98
2022-09-13T02:05:59.238Z,14.94
2022-09-13T02:09:06.798Z,14.87
2022-09-13T02:12:14.925Z,14.83
2022-09-13T02:15:22.897Z,14.75
2022-09-13T02:18:30.896Z,14.74
2022-09-13T02:21:38.876Z,14.75
2022-09-13T02:24:47.017Z,14.78
2022-09-13T02:27:55.153Z,14.86
2022-09-13T02:31:03.060Z,14.90
2022-09-13T02:34:11.373Z,14.93
2022-09-13T02:37:18.993Z,14.95
2022-09-13T02:40:26.821Z,14.99
2022-09-13T02:43:35.145Z,15.02
2022-09-13T02:46:43.031Z,15.05
2022-09-13T02:49:51.049Z,15.08
2022-09-13T02:52:59.446Z,15.09
2022-09-13T02:56:07.126Z,15.09
2022-09-13T02:59:15.506Z,15.17
2022-09-13T03:02:23.948Z,15.20
2022-09-13T03:05:31.462Z,15.26
2022-09-13T03:08:39.544Z,15.27
2022-09-13T03:11:47.558Z,15.30
2022-09-13T03:14:55.235Z,15.35
2022-09-13T03:18:03.768Z,15.39
2022-09-13T03:21:11.626Z,15.42
2022-09-13T03:24:19.769Z,15.43
2022-09-13T03:27:27.996Z,15.46
2022-09-13T03:30:36.508Z,15.52
2022-09-13T03:33:44.784Z,15.56
2022-09-13T03:36:52.794Z,15.60
2022-09-13T03:40:01.240Z,15.60
2022-09-13T03:43:09.023Z,15.54
2022-09-13T03:46:16.763Z,15.39
2022-09-13T03:49:25.032Z,15.23
2022-09-13T03:52:32.535Z,15.17
2022-09-13T03:55:40.924Z,14.99
2022-09-13T03:58:49.441Z,14.84
2022-09-13T04:01:56.867Z,14.74
2022-09-13T04:05:05.131Z,14.69
2022-09-13T04:08:12.621Z,14.71
2022-09-13T04:11:20.888Z,14.80
2022-09-13T04:14:29.191Z,14.87
2022-09-13T04:17:36.659Z,14.84
2022-09-13T04:20:45.038Z,14.93
2022-09-13T04:23:52.958Z,14.99
2022-09-13T04:27:00.832Z,15.03
2022-09-13T04:30:09.156Z,15.08
2022-09-13T04:33:17.585Z,15.11
2022-09-13T04:36:25.466Z,15.13
2022-09-13T04:39:33.420Z,15.15
2022-09-13T04:42:41.677Z,15.19
2022-09-13T04:45:49.905Z,15.19
2022-09-13T04:48:57.480Z,15.19
2022-09-13T04:52:05.758Z,15.19
2022-09-13T04:55:13.629Z,15.20
2022-09-13T04:58:21.521Z,15.23
2022-09-13T05:01:29.943Z,15.21
2022-09-13T05:04:37.592Z,15.19
2022-09-13T05:07:46.015Z,15.24
2022-09-13T05:10:54.365Z,15.31
2022-09-13T05:14:01.986Z,15.41
2022-09-13T05:17:10.237Z,15.45
2022-09-13T05:20:18.127Z,15.46
2022-09-13T05:23:26.162Z,15.49
2022-09-13T05:26:34.598Z,15.49
2022-09-13T05:29:42.564Z,15.51
2022-09-13T05:32:50.471Z,15.59
2022-09-13T05:35:58.445Z,15.60
2022-09-13T05:39:29.095Z,15.66
2022-09-13T05:42:11.668Z,15.70
2022-09-13T05:45:19.822Z,15.75
2022-09-13T05:48:27.888Z,15.81
2022-09-13T05:51:35.499Z,15.86
2022-09-13T05:54:43.849Z,15.86
2022-09-13T05:57:51.961Z,15.97
2022-09-13T06:00:59.530Z,16.09
2022-09-13T06:04:07.982Z,16.16
2022-09-13T06:07:16.023Z,16.14
2022-09-13T06:10:24.035Z,16.22
2022-09-13T06:13:32.453Z,16.30
2022-09-13T06:16:40.080Z,16.33
2022-09-13T06:19:48.397Z,16.37
2022-09-13T06:22:56.404Z,16.42
2022-09-13T06:26:04.720Z,16.45
2022-09-13T06:29:12.800Z,16.49
2022-09-13T06:32:20.811Z,16.53
2022-09-13T06:35:29.322Z,16.55
2022-09-13T06:38:37.022Z,16.58
2022-09-13T06:41:45.450Z,16.50
2022-09-13T06:44:53.764Z,16.53
2022-09-13T06:48:01.326Z,16.56
2022-09-13T06:51:09.918Z,16.58
2022-09-13T06:54:18.447Z,16.59
2022-09-13T06:57:25.997Z,16.62
2022-09-13T07:00:34.265Z,16.70
2022-09-13T07:03:42.372Z,16.83
2022-09-13T07:06:50.255Z,16.99
2022-09-13T07:09:58.724Z,17.22
2022-09-13T07:13:06.784Z,17.36
2022-09-13T07:16:14.917Z,17.59
2022-09-13T07:19:22.986Z,17.70
2022-09-13T07:22:31.291Z,17.82
2022-09-13T07:25:39.652Z,17.89
2022-09-13T07:28:47.289Z,18.03
2022-09-13T07:31:55.644Z,18.03
2022-09-13T07:35:03.262Z,18.19
2022-09-13T07:38:11.754Z,18.24
2022-09-13T07:41:20.143Z,18.40
2022-09-13T07:44:28.136Z,18.40
2022-09-13T07:47:36.118Z,18.46
2022-09-13T07:50:44.607Z,18.40
2022-09-13T07:53:57.086Z,18.37
2022-09-13T07:56:54.549Z,18.43
2022-09-13T08:00:02.500Z,18.40
2022-09-13T08:03:10.822Z,18.49
2022-09-13T08:06:18.902Z,18.59
2022-09-13T08:09:26.706Z,18.77
2022-09-13T08:12:34.624Z,18.86
2022-09-13T08:15:42.782Z,18.91
2022-09-13T08:18:50.756Z,18.95
2022-09-13T08:21:58.994Z,18.97
2022-09-13T08:25:07.431Z,19.06
2022-09-13T08:28:15.553Z,19.23
2022-09-13T08:31:23.716Z,19.25
2022-09-13T08:34:32.270Z,19.32
2022-09-13T08:37:40.399Z,19.40
2022-09-13T08:40:48.614Z,19.43
2022-09-13T08:43:56.756Z,19.47
2022-09-13T08:47:04.928Z,19.55
2022-09-13T08:50:13.145Z,19.60
2022-09-13T08:53:21.181Z,19.60
2022-09-13T08:56:29.315Z,19.57
2022-09-13T08:59:37.343Z,19.55
2022-09-13T09:02:45.920Z,19.55
2022-09-13T09:05:53.938Z,19.54
2022-09-13T09:09:01.813Z,19.46
2022-09-13T09:12:09.733Z,19.36
2022-09-13T09:15:18.567Z,19.35
2022-09-13T09:18:26.641Z,19.51
2022-09-13T09:21:34.691Z,19.68
2022-09-13T09:24:43.253Z,19.86
2022-09-13T09:27:51.602Z,20.12
2022-09-13T09:30:59.962Z,20.35
2022-09-13T09:34:09.073Z,20.59
2022-09-13T09:37:16.946Z,20.50
2022-09-13T09:40:29.717Z,20.49
2022-09-13T09:43:29.796Z,20.65
2022-09-13T09:46:37.809Z,20.79
2022-09-13T09:49:46.678Z,20.87
2022-09-13T09:52:55.110Z,20.76
2022-09-13T09:56:03.205Z,20.58
2022-09-13T09:59:11.696Z,20.58
2022-09-13T10:02:19.605Z,20.66
2022-09-13T10:05:27.641Z,20.68
2022-09-13T10:08:35.549Z,20.65
2022-09-13T10:11:43.941Z,20.56
2022-09-13T10:14:51.943Z,20.61
2022-09-13T10:18:00.026Z,20.65
2022-09-13T10:21:08.249Z,20.64
2022-09-13T10:24:15.866Z,20.61
2022-09-13T10:27:24.318Z,20.65
2022-09-13T10:30:32.660Z,20.65
2022-09-13T10:33:40.152Z,20.62
2022-09-13T10:36:52.678Z,20.83
2022-09-13T10:39:49.864Z,21.02
2022-09-13T10:42:58.359Z,21.14
2022-09-13T10:46:06.875Z,21.21
2022-09-13T10:49:14.457Z,21.04
2022-09-13T10:52:22.701Z,20.95
2022-09-13T10:55:30.820Z,20.80
2022-09-13T10:58:38.856Z,20.74
2022-09-13T11:01:47.016Z,20.74
2022-09-13T11:04:55.044Z,20.93
2022-09-13T11:08:03.026Z,20.99
2022-09-13T11:11:10.599Z,21.04
2022-09-13T11:14:19.043Z,21.08
2022-09-13T11:17:27.442Z,21.09
2022-09-13T11:20:35.162Z,21.04
2022-09-13T11:23:43.562Z,20.96
2022-09-13T11:26:51.225Z,20.86
2022-09-13T11:29:59.826Z,20.77
2022-09-13T11:33:08.214Z,20.79
2022-09-13T11:36:15.850Z,20.87
2022-09-13T11:39:24.109Z,20.98
2022-09-13T11:42:32.174Z,20.96
2022-09-13T11:45:40.279Z,20.91
2022-09-13T11:48:48.746Z,20.98
2022-09-13T11:51:56.717Z,20.93
2022-09-13T11:55:04.876Z,21.04
2022-09-13T11:58:13.295Z,21.17
2022-09-13T12:01:21.383Z,21.29
2022-09-13T12:04:33.560Z,21.46
2022-09-13T12:07:30.985Z,21.44
2022-09-13T12:10:39.540Z,21.45
2022-09-13T12:13:47.812Z,21.53
2022-09-13T12:16:55.783Z,21.54
2022-09-13T12:20:04.129Z,21.56
2022-09-13T12:23:12.256Z,21.48
2022-09-13T12:26:20.173Z,21.13
2022-09-13T12:29:28.659Z,20.83
2022-09-13T12:32:36.350Z,20.80
2022-09-13T12:35:44.745Z,20.66
2022-09-13T12:38:53.107Z,20.56
2022-09-13T12:42:00.807Z,20.38
2022-09-13T12:45:09.216Z,20.30
2022-09-13T12:48:17.269Z,20.31
2022-09-13T12:51:25.289Z,20.39
2022-09-13T12:54:33.971Z,20.49
2022-09-13T12:57:41.766Z,20.56
2022-09-13T13:00:49.723Z,20.56
2022-09-13T13:03:57.715Z,20.50
2022-09-13T13:07:05.613Z,20.47
2022-09-13T13:10:13.559Z,20.42
2022-09-13T13:13:21.681Z,20.42
2022-09-13T13:16:30.213Z,20.62
2022-09-13T13:19:37.842Z,20.95
2022-09-13T13:22:46.224Z,21.14
2022-09-13T13:25:54.234Z,21.26
2022-09-13T13:29:02.462Z,21.48
2022-09-13T13:32:10.706Z,21.56
2022-09-13T13:35:18.323Z,21.76
2022-09-13T13:38:26.819Z,21.75
2022-09-13T13:41:35.261Z,21.66
2022-09-13T13:44:43.153Z,21.46
2022-09-13T13:47:51.532Z,21.30
2022-09-13T13:50:59.681Z,21.06
2022-09-13T13:54:09.035Z,20.95
2022-09-13T13:57:17.538Z,20.91
2022-09-13T14:00:25.545Z,20.83
2022-09-13T14:03:33.569Z,20.79
2022-09-13T14:06:41.829Z,20.68
2022-09-13T14:09:49.712Z,20.56
2022-09-13T14:12:57.832Z,20.51
2022-09-13T14:16:05.761Z,20.47
2022-09-13T14:19:14.147Z,20.51
2022-09-13T14:22:22.149Z,20.56
2022-09-13T14:25:30.261Z,20.65
2022-09-13T14:28:38.567Z,20.95
2022-09-13T14:31:46.295Z,21.08
2022-09-13T14:34:55.054Z,21.34
2022-09-13T14:38:03.634Z,21.50
2022-09-13T14:41:11.345Z,21.59
2022-09-13T14:44:25.038Z,21.66
2022-09-13T14:47:24.230Z,21.69
2022-09-13T14:50:32.444Z,21.64
2022-09-13T14:53:41.075Z,21.63
2022-09-13T14:56:49.361Z,21.56
2022-09-13T14:59:57.539Z,21.39
2022-09-13T15:03:05.240Z,21.35
2022-09-13T15:06:13.905Z,21.29
2022-09-13T15:09:21.846Z,21.26
2022-09-13T15:12:30.216Z,21.29
2022-09-13T15:15:38.789Z,21.41
2022-09-13T15:18:47.517Z,21.51
2022-09-13T15:21:55.490Z,21.72
2022-09-13T15:25:03.493Z,21.83
2022-09-13T15:28:11.244Z,21.95
2022-09-13T15:31:19.193Z,21.92
2022-09-13T15:34:27.218Z,21.81
2022-09-13T15:37:35.617Z,21.56
2022-09-13T15:40:44.118Z,21.41
2022-09-13T15:43:51.769Z,21.16
2022-09-13T15:47:00.000Z,21.01
2022-09-13T15:50:08.424Z,20.87
2022-09-13T15:53:16.109Z,20.71
2022-09-13T15:56:24.444Z,20.72
2022-09-13T15:59:32.463Z,20.76
2022-09-13T16:02:40.701Z,20.68
2022-09-13T16:05:49.007Z,20.61
2022-09-13T16:08:56.878Z,20.53
2022-09-13T16:12:04.880Z,20.46
2022-09-13T16:15:13.412Z,20.42
2022-09-13T16:18:21.779Z,20.39
2022-09-13T16:21:29.772Z,20.35
2022-09-13T16:24:37.940Z,20.34
2022-09-13T16:27:45.953Z,20.30
2022-09-13T16:30:54.090Z,20.25
2022-09-13T16:34:02.189Z,20.24
2022-09-13T16:37:10.235Z,20.27
2022-09-13T16:40:18.898Z,20.33
2022-09-13T16:43:27.183Z,20.38
2022-09-13T16:46:35.179Z,20.33
2022-09-13T16:49:43.282Z,20.24
2022-09-13T16:52:51.393Z,20.15
2022-09-13T16:56:01.779Z,20.08
2022-09-13T16:59:01.028Z,19.95
2022-09-13T17:02:09.665Z,19.86
2022-09-13T17:05:17.324Z,19.72
2022-09-13T17:08:25.139Z,19.57
2022-09-13T17:11:34.292Z,19.43
2022-09-13T17:14:43.152Z,19.28
2022-09-13T17:17:51.922Z,19.14
2022-09-13T17:21:00.293Z,18.99
2022-09-13T17:24:13.255Z,18.86
2022-09-13T17:27:11.524Z,18.76
2022-09-13T17:30:20.269Z,18.64
2022-09-13T17:33:28.129Z,18.49
2022-09-13T17:36:36.800Z,18.36
2022-09-13T17:39:45.608Z,18.24
2022-09-13T17:42:53.475Z,18.13
2022-09-13T17:46:02.131Z,18.04
2022-09-13T17:49:10.466Z,17.95
2022-09-13T17:52:18.513Z,17.87
2022-09-13T17:55:27.186Z,17.79
2022-09-13T17:58:35.305Z,17.73
2022-09-13T18:01:43.364Z,17.66
2022-09-13T18:04:51.356Z,17.62
2022-09-13T18:07:59.618Z,17.54
2022-09-13T18:11:13.728Z,17.50
2022-09-13T18:14:11.461Z,17.41
2022-09-13T18:17:19.882Z,17.33
2022-09-13T18:20:27.462Z,17.25
2022-09-13T18:23:35.847Z,17.18
2022-09-13T18:26:44.209Z,17.13
2022-09-13T18:29:51.893Z,17.06
2022-09-13T18:33:00.406Z,16.93
2022-09-13T18:36:08.824Z,16.86
2022-09-13T18:39:16.486Z,16.81
2022-09-13T18:42:25.181Z,16.78
2022-09-13T18:45:33.161Z,16.73
2022-09-13T18:48:41.082Z,16.68
2022-09-13T18:51:49.475Z,16.63
2022-09-13T18:54:56.996Z,16.58
2022-09-13T18:58:05.395Z,16.58
2022-09-13T19:01:13.786Z,16.53
2022-09-13T19:04:21.879Z,16.48
2022-09-13T19:07:30.366Z,16.27
2022-09-13T19:10:38.309Z,16.16
2022-09-13T19:13:46.367Z,16.11
2022-09-13T19:16:54.841Z,16.06
2022-09-13T19:20:02.842Z,16.00
2022-09-13T19:23:10.919Z,15.92
2022-09-13T19:26:18.796Z,15.81
2022-09-13T19:29:26.917Z,15.74
2022-09-13T19:32:34.416Z,15.75
2022-09-13T19:35:42.808Z,15.74
2022-09-13T19:38:50.865Z,15.72
2022-09-13T19:41:58.696Z,15.72
2022-09-13T19:45:07.109Z,15.66
2022-09-13T19:51:20.279Z,15.60
2022-09-13T19:54:28.762Z,15.54
2022-09-13T19:57:36.362Z,15.59
2022-09-13T20:00:44.824Z,15.59
2022-09-13T20:03:52.942Z,15.59
2022-09-13T20:07:00.937Z,15.57
2022-09-13T20:10:09.494Z,15.61
2022-09-13T20:13:17.411Z,15.63
2022-09-13T20:16:25.316Z,15.66
2022-09-13T20:19:44.785Z,15.72
2022-09-13T20:22:38.725Z,15.78
2022-09-13T20:25:46.812Z,15.84
2022-09-13T20:28:55.180Z,15.88
2022-09-13T20:32:03.384Z,15.93
2022-09-13T20:35:11.072Z,15.92
2022-09-13T20:38:18.982Z,15.86
2022-09-13T20:41:27.518Z,15.78
2022-09-13T20:44:35.555Z,15.66
2022-09-13T20:47:43.601Z,15.63
2022-09-13T20:50:52.257Z,15.57
2022-09-13T20:54:00.453Z,15.51
2022-09-13T20:57:09.250Z,15.48
2022-09-13T21:00:18.152Z,15.38
2022-09-13T21:03:25.942Z,15.21
2022-09-13T21:06:34.634Z,15.09
2022-09-13T21:09:42.966Z,14.98
2022-09-13T21:12:50.927Z,14.87
2022-09-13T21:15:59.454Z,14.78
2022-09-13T21:19:07.185Z,14.65
2022-09-13T21:22:15.741Z,14.54
2022-09-13T21:25:23.800Z,14.44
2022-09-13T21:28:32.423Z,14.42
2022-09-13T21:31:40.870Z,14.35
2022-09-13T21:34:49.520Z,14.31
2022-09-13T21:37:57.837Z,14.24
2022-09-13T21:41:05.824Z,14.14
2022-09-13T21:44:14.623Z,14.12
2022-09-13T21:47:23.426Z,14.17
2022-09-13T21:50:30.918Z,14.14
2022-09-13T21:53:39.442Z,14.09
2022-09-13T21:56:47.357Z,14.07
2022-09-13T21:59:55.518Z,13.98
2022-09-13T22:03:04.035Z,13.89
2022-09-13T22:06:12.095Z,13.92
2022-09-13T22:09:20.165Z,13.87
2022-09-13T22:12:28.301Z,13.84
2022-09-13T22:15:36.844Z,13.77
2022-09-13T22:18:44.791Z,13.69
2022-09-13T22:21:52.915Z,13.63
2022-09-13T22:25:00.956Z,13.59
2022-09-13T22:28:09.142Z,13.58
2022-09-13T22:31:17.237Z,13.54
2022-09-13T22:34:25.870Z,13.51
2022-09-13T22:37:33.450Z,13.55
2022-09-13T22:40:41.992Z,13.52
2022-09-13T22:43:50.487Z,13.58
2022-09-13T22:46:58.142Z,13.55
2022-09-13T22:50:06.792Z,13.51
2022-09-13T22:53:15.184Z,13.44
2022-09-13T22:56:22.836Z,13.38
2022-09-13T22:59:31.248Z,13.36
2022-09-13T23:02:38.893Z,13.36
2022-09-13T23:05:47.306Z,13.22
2022-09-13T23:08:55.560Z,13.17
2022-09-13T23:12:03.117Z,13.18
2022-09-13T23:15:11.502Z,13.17
2022-09-13T23:18:20.158Z,13.17
2022-09-13T23:21:27.869Z,13.20
2022-09-13T23:24:35.788Z,13.29
2022-09-13T23:27:43.654Z,13.33
2022-09-13T23:30:51.613Z,13.30
2022-09-13T23:33:59.936Z,13.22
2022-09-13T23:37:07.934Z,13.17
2022-09-13T23:40:16.129Z,13.12
2022-09-13T23:43:24.275Z,13.04
2022-09-13T23:46:32.338Z,13.04
2022-09-13T23:49:40.416Z,13.09
2022-09-13T23:52:48.647Z,13.06
2022-09-13T23:55:56.498Z,13.02
2022-09-13T23:59:04.485Z,13.04
